Aeroporto :
LOGIN :

Iscrizione | Disclaimer

   EN    FR    IT 

 










Sommario :    VFR   VFR Marginale   IFR   IFR Intensivo   IFR Molto Intensivo
Visibilità : 
Base nubi : 
>= 8 km
>= 3000ft
5 / 8 km
1000 / 3000 ft
1500m / 5 km
500 / 1000 ft
800 / 1500m
200 / 500 ft
< 800m
< 200 ft
Simboli :   Temporali  Nebbia  Neve Forte  Precipitazioni Forti  Vento > 20 kt
SIGMETs :   Varie  Temporali  Ghiacco  Turbolenza  Onda orograficha  Ceneri Vulcaniche






- Altitudine del aeroporto : 370 ft


EBBE - Beauvechain AB

ULTIMO METAR :
  • 280825Z 05010KT 9999 SKC 15/07 Q1033 BLU BLU

METARs OBSOLETI :
  • 280755Z 05009KT 9999 SKC 14/07 Q1034 BLU BLU
  • 280725Z 06009KT 9999 SKC 14/07 Q1034 BLU BLU
  • 280655Z 06010KT 9999 SKC 12/07 Q1034 BLU BLU
  • 280625Z 06009KT 9999 SKC 12/06 Q1034 BLU BLU
  • 280555Z 06011KT 9999 SKC 10/06 Q1034 BLU BLU

TAF TAF EBBE
Valido dal 28 a 07 ore il 28 a 16 ore UTC


280541Z 2807/2816 05008KT 9999 FEW280



MetMap, La meteo Aeronautica in un colpo d'occhio ! - Copyright ORBIFLY Dicembre 2007 - Disclaimer

ORBIFLY MET'MAP TEAM :

Programmazione e sviluppo : Alexandra Zaïnal
Concezione : Baudouin d'Aumeries
Aiuto per la programmazione : Marc-Olivier Méhu
Supporto tecnico e logistico : Manuel Goepfert
Aiuto per la traduzione : Arnaldo La Scala

Contatto : metmap@orbifly.com




FONTI E CREDITI :

   NOAA